sensor_id;sensor_type;location;lat;lon;timestamp;pressure;altitude;pressure_sealevel;temperature;humidity
8653;BME280;4364;52.426;9.424;2023-02-14T00:00:48;103155.97;;;1.10;99.28
8653;BME280;4364;52.426;9.424;2023-02-14T00:03:14;103150.91;;;1.07;99.01
8653;BME280;4364;52.426;9.424;2023-02-14T00:05:41;103157.75;;;1.01;99.09
8653;BME280;4364;52.426;9.424;2023-02-14T00:08:08;103151.84;;;0.98;99.12
8653;BME280;4364;52.426;9.424;2023-02-14T00:10:35;103156.38;;;0.97;99.40
8653;BME280;4364;52.426;9.424;2023-02-14T00:13:01;103155.75;;;1.03;99.70
8653;BME280;4364;52.426;9.424;2023-02-14T00:15:28;103150.78;;;1.08;99.38
8653;BME280;4364;52.426;9.424;2023-02-14T00:17:56;103157.81;;;1.09;99.43
8653;BME280;4364;52.426;9.424;2023-02-14T00:20:26;103164.66;;;1.04;99.10
8653;BME280;4364;52.426;9.424;2023-02-14T00:22:52;103164.28;;;0.99;99.62
8653;BME280;4364;52.426;9.424;2023-02-14T00:25:19;103162.44;;;0.99;99.68
8653;BME280;4364;52.426;9.424;2023-02-14T00:27:46;103160.88;;;0.97;99.55
8653;BME280;4364;52.426;9.424;2023-02-14T00:30:13;103161.19;;;0.93;99.64
8653;BME280;4364;52.426;9.424;2023-02-14T00:32:41;103163.84;;;0.93;99.85
8653;BME280;4364;52.426;9.424;2023-02-14T00:35:09;103163.03;;;0.93;99.55
8653;BME280;4364;52.426;9.424;2023-02-14T00:37:39;103158.97;;;0.89;99.53
8653;BME280;4364;52.426;9.424;2023-02-14T00:40:06;103156.16;;;0.90;99.37
8653;BME280;4364;52.426;9.424;2023-02-14T00:42:32;103153.78;;;0.87;99.28
8653;BME280;4364;52.426;9.424;2023-02-14T00:44:59;103150.56;;;0.84;99.26
8653;BME280;4364;52.426;9.424;2023-02-14T00:47:26;103157.66;;;0.75;99.14
8653;BME280;4364;52.426;9.424;2023-02-14T00:49:52;103155.19;;;0.82;99.94
8653;BME280;4364;52.426;9.424;2023-02-14T00:52:19;103160.25;;;0.85;99.34
8653;BME280;4364;52.426;9.424;2023-02-14T00:54:45;103155.91;;;0.84;99.51
8653;BME280;4364;52.426;9.424;2023-02-14T00:57:12;103163.94;;;0.84;99.16
8653;BME280;4364;52.426;9.424;2023-02-14T00:59:39;103155.84;;;0.76;99.08
8653;BME280;4364;52.426;9.424;2023-02-14T01:02:05;103157.78;;;0.73;99.31
8653;BME280;4364;52.426;9.424;2023-02-14T01:04:32;103158.66;;;0.74;99.61
8653;BME280;4364;52.426;9.424;2023-02-14T01:06:59;103160.03;;;0.78;99.26
8653;BME280;4364;52.426;9.424;2023-02-14T01:09:25;103162.09;;;0.84;99.39
8653;BME280;4364;52.426;9.424;2023-02-14T01:11:52;103165.47;;;0.86;99.17
8653;BME280;4364;52.426;9.424;2023-02-14T01:14:18;103158.97;;;0.89;99.50
8653;BME280;4364;52.426;9.424;2023-02-14T01:16:45;103156.44;;;0.87;99.28
8653;BME280;4364;52.426;9.424;2023-02-14T01:19:12;103164.50;;;0.87;99.18
8653;BME280;4364;52.426;9.424;2023-02-14T01:21:41;103165.16;;;0.89;99.03
8653;BME280;4364;52.426;9.424;2023-02-14T01:24:09;103162.63;;;0.88;99.28
8653;BME280;4364;52.426;9.424;2023-02-14T01:26:37;103163.47;;;0.88;99.14
8653;BME280;4364;52.426;9.424;2023-02-14T01:29:04;103157.88;;;0.82;99.17
8653;BME280;4364;52.426;9.424;2023-02-14T01:31:32;103159.50;;;0.74;99.30
8653;BME280;4364;52.426;9.424;2023-02-14T01:33:59;103156.38;;;0.79;99.64
8653;BME280;4364;52.426;9.424;2023-02-14T01:36:33;103159.19;;;0.78;99.62
8653;BME280;4364;52.426;9.424;2023-02-14T01:39:03;103159.19;;;0.78;99.20
8653;BME280;4364;52.426;9.424;2023-02-14T01:41:32;103160.72;;;0.80;99.82
8653;BME280;4364;52.426;9.424;2023-02-14T01:44:49;103157.59;;;0.85;99.97
8653;BME280;4364;52.426;9.424;2023-02-14T01:46:53;103165.47;;;0.86;99.76
8653;BME280;4364;52.426;9.424;2023-02-14T01:49:23;103163.47;;;0.88;99.93
8653;BME280;4364;52.426;9.424;2023-02-14T01:52:06;103164.56;;;0.96;99.73
8653;BME280;4364;52.426;9.424;2023-02-14T01:54:37;103159.81;;;0.89;99.20
8653;BME280;4364;52.426;9.424;2023-02-14T01:57:09;103162.94;;;0.85;99.11
8653;BME280;4364;52.426;9.424;2023-02-14T01:59:42;103164.56;;;0.78;99.50
8653;BME280;4364;52.426;9.424;2023-02-14T02:02:11;103154.66;;;0.78;99.39
8653;BME280;4364;52.426;9.424;2023-02-14T02:04:41;103162.72;;;0.78;99.60
8653;BME280;4364;52.426;9.424;2023-02-14T02:07:15;103159.34;;;0.76;99.71
8653;BME280;4364;52.426;9.424;2023-02-14T02:09:46;103162.72;;;0.78;99.60
8653;BME280;4364;52.426;9.424;2023-02-14T02:12:14;103150.47;;;0.76;99.86
8653;BME280;4364;52.426;9.424;2023-02-14T02:14:42;103156.81;;;0.74;99.45
8653;BME280;4364;52.426;9.424;2023-02-14T02:23:26;103136.59;;;0.62;99.61
8653;BME280;4364;52.426;9.424;2023-02-14T02:32:35;103129.06;;;0.48;100.00
8653;BME280;4364;52.426;9.424;2023-02-14T02:43:35;103109.56;;;0.38;99.50
8653;BME280;4364;52.426;9.424;2023-02-14T02:49:24;103107.13;;;0.44;99.69
8653;BME280;4364;52.426;9.424;2023-02-14T02:55:23;103109.78;;;0.44;99.55
8653;BME280;4364;52.426;9.424;2023-02-14T02:57:52;103100.22;;;0.42;99.60
8653;BME280;4364;52.426;9.424;2023-02-14T03:00:21;103098.84;;;0.38;100.00
8653;BME280;4364;52.426;9.424;2023-02-14T03:02:51;103097.00;;;0.38;99.78
8653;BME280;4364;52.426;9.424;2023-02-14T03:05:39;103093.09;;;0.32;100.00
8653;BME280;4364;52.426;9.424;2023-02-14T03:08:06;103093.00;;;0.24;99.79
8653;BME280;4364;52.426;9.424;2023-02-14T03:10:36;103087.03;;;0.12;99.49
8653;BME280;4364;52.426;9.424;2023-02-14T03:13:16;103083.25;;;0.05;99.86
8653;BME280;4364;52.426;9.424;2023-02-14T03:16:00;103079.88;;;0.03;100.00
8653;BME280;4364;52.426;9.424;2023-02-14T03:18:54;103078.88;;;0.04;100.00
8653;BME280;4364;52.426;9.424;2023-02-14T03:21:36;103086.91;;;0.04;100.00
8653;BME280;4364;52.426;9.424;2023-02-14T03:24:29;103086.47;;;0.09;100.00
8653;BME280;4364;52.426;9.424;2023-02-14T03:27:09;103088.53;;;0.15;99.85
8653;BME280;4364;52.426;9.424;2023-02-14T03:29:53;103079.38;;;0.17;100.00
8653;BME280;4364;52.426;9.424;2023-02-14T03:32:46;103078.69;;;0.15;99.94
8653;BME280;4364;52.426;9.424;2023-02-14T03:38:20;103078.22;;;0.20;99.68
8653;BME280;4364;52.426;9.424;2023-02-14T03:41:02;103077.09;;;0.23;100.00
8653;BME280;4364;52.426;9.424;2023-02-14T03:43:33;103068.78;;;0.26;99.85
8653;BME280;4364;52.426;9.424;2023-02-14T03:46:09;103067.53;;;0.20;99.94
8653;BME280;4364;52.426;9.424;2023-02-14T03:48:37;103074.03;;;0.17;100.00
8653;BME280;4364;52.426;9.424;2023-02-14T03:51:07;103075.88;;;0.17;100.00
8653;BME280;4364;52.426;9.424;2023-02-14T03:53:37;103065.63;;;0.12;100.00
8653;BME280;4364;52.426;9.424;2023-02-14T03:56:21;103062.50;;;0.17;100.00
8653;BME280;4364;52.426;9.424;2023-02-14T03:58:55;103065.91;;;0.09;100.00
8653;BME280;4364;52.426;9.424;2023-02-14T04:01:32;103064.34;;;0.07;100.00
8653;BME280;4364;52.426;9.424;2023-02-14T04:04:02;103065.75;;;0.11;100.00
8653;BME280;4364;52.426;9.424;2023-02-14T04:06:30;103067.75;;;0.09;100.00
8653;BME280;4364;52.426;9.424;2023-02-14T04:08:57;103065.91;;;0.09;100.00
8653;BME280;4364;52.426;9.424;2023-02-14T04:11:23;103063.53;;;0.06;100.00
8653;BME280;4364;52.426;9.424;2023-02-14T04:13:50;103063.47;;;0.16;100.00
8653;BME280;4364;52.426;9.424;2023-02-14T04:16:16;103053.59;;;0.16;100.00
8653;BME280;4364;52.426;9.424;2023-02-14T04:18:43;103055.06;;;0.11;100.00
8653;BME280;4364;52.426;9.424;2023-02-14T04:21:28;103050.38;;;0.13;100.00
8653;BME280;4364;52.426;9.424;2023-02-14T04:23:55;103056.44;;;0.15;100.00
8653;BME280;4364;52.426;9.424;2023-02-14T04:26:21;103052.78;;;0.16;100.00
8653;BME280;4364;52.426;9.424;2023-02-14T04:28:48;103050.78;;;0.18;100.00
8653;BME280;4364;52.426;9.424;2023-02-14T04:31:14;103045.97;;;0.22;100.00
8653;BME280;4364;52.426;9.424;2023-02-14T04:33:41;103040.38;;;0.15;100.00
8653;BME280;4364;52.426;9.424;2023-02-14T04:36:08;103035.03;;;0.15;100.00
8653;BME280;4364;52.426;9.424;2023-02-14T04:38:34;103041.63;;;0.21;100.00
8653;BME280;4364;52.426;9.424;2023-02-14T04:41:01;103040.31;;;0.25;100.00
8653;BME280;4364;52.426;9.424;2023-02-14T04:43:28;103042.53;;;0.29;100.00
8653;BME280;4364;52.426;9.424;2023-02-14T04:45:54;103040.25;;;0.34;100.00
8653;BME280;4364;52.426;9.424;2023-02-14T04:48:21;103035.06;;;0.33;100.00
8653;BME280;4364;52.426;9.424;2023-02-14T04:50:52;103042.25;;;0.32;100.00
8653;BME280;4364;52.426;9.424;2023-02-14T04:53:19;103034.38;;;0.31;100.00
8653;BME280;4364;52.426;9.424;2023-02-14T04:55:49;103040.03;;;0.28;100.00
8653;BME280;4364;52.426;9.424;2023-02-14T04:58:16;103039.03;;;0.29;100.00
8653;BME280;4364;52.426;9.424;2023-02-14T05:00:43;103036.38;;;0.29;100.00
8653;BME280;4364;52.426;9.424;2023-02-14T05:03:10;103037.50;;;0.26;100.00
8653;BME280;4364;52.426;9.424;2023-02-14T05:05:36;103032.97;;;0.27;100.00
8653;BME280;4364;52.426;9.424;2023-02-14T05:08:03;103033.44;;;0.22;100.00
8653;BME280;4364;52.426;9.424;2023-02-14T05:10:29;103032.81;;;0.10;100.00
8653;BME280;4364;52.426;9.424;2023-02-14T05:12:56;103038.03;;;0.12;100.00
8653;BME280;4364;52.426;9.424;2023-02-14T05:15:22;103035.16;;;0.13;100.00
8653;BME280;4364;52.426;9.424;2023-02-14T05:17:48;103035.34;;;0.12;100.00
8653;BME280;4364;52.426;9.424;2023-02-14T05:20:15;103035.25;;;0.04;100.00
8653;BME280;4364;52.426;9.424;2023-02-14T05:22:42;103033.94;;;0.08;100.00
8653;BME280;4364;52.426;9.424;2023-02-14T05:25:08;103029.28;;;0.10;100.00
8653;BME280;4364;52.426;9.424;2023-02-14T05:27:35;103029.75;;;0.05;100.00
8653;BME280;4364;52.426;9.424;2023-02-14T05:30:01;103030.28;;;0.09;100.00
8653;BME280;4364;52.426;9.424;2023-02-14T05:32:28;103027.91;;;0.06;100.00
8653;BME280;4364;52.426;9.424;2023-02-14T05:34:54;103029.50;;;-0.02;100.00
8653;BME280;4364;52.426;9.424;2023-02-14T05:37:20;103029.75;;;0.05;100.00
8653;BME280;4364;52.426;9.424;2023-02-14T05:39:47;103035.31;;;-0.06;100.00
8653;BME280;4364;52.426;9.424;2023-02-14T05:42:13;103035.25;;;0.04;100.00
8653;BME280;4364;52.426;9.424;2023-02-14T05:44:40;103035.97;;;-0.04;100.00
8653;BME280;4364;52.426;9.424;2023-02-14T05:47:06;103025.94;;;-0.20;100.00
8653;BME280;4364;52.426;9.424;2023-02-14T05:49:33;103028.56;;;-0.38;100.00
8653;BME280;4364;52.426;9.424;2023-02-14T05:52:00;103026.53;;;-0.26;100.00
8653;BME280;4364;52.426;9.424;2023-02-14T05:54:26;103031.59;;;-0.23;100.00
8653;BME280;4364;52.426;9.424;2023-02-14T05:56:53;103032.28;;;-0.21;100.00
8653;BME280;4364;52.426;9.424;2023-02-14T05:59:19;103033.97;;;-0.20;100.00
8653;BME280;4364;52.426;9.424;2023-02-14T06:01:46;103023.66;;;-0.15;100.00
8653;BME280;4364;52.426;9.424;2023-02-14T06:04:13;103028.16;;;-0.15;100.00
8653;BME280;4364;52.426;9.424;2023-02-14T06:06:39;103033.28;;;-0.32;100.00
8653;BME280;4364;52.426;9.424;2023-02-14T06:09:06;103036.28;;;-0.35;100.00
8653;BME280;4364;52.426;9.424;2023-02-14T06:11:32;103038.44;;;-0.48;100.00
8653;BME280;4364;52.426;9.424;2023-02-14T06:13:59;103039.88;;;-0.64;100.00
8653;BME280;4364;52.426;9.424;2023-02-14T06:16:25;103037.03;;;-0.52;100.00
8653;BME280;4364;52.426;9.424;2023-02-14T06:18:52;103034.25;;;-0.70;100.00
8653;BME280;4364;52.426;9.424;2023-02-14T06:21:18;103039.59;;;-0.70;100.00
8653;BME280;4364;52.426;9.424;2023-02-14T06:23:45;103039.03;;;-0.64;100.00
8653;BME280;4364;52.426;9.424;2023-02-14T06:26:12;103044.38;;;-0.54;100.00
8653;BME280;4364;52.426;9.424;2023-02-14T06:28:38;103038.69;;;-0.42;100.00
8653;BME280;4364;52.426;9.424;2023-02-14T06:31:05;103043.91;;;-0.40;100.00
8653;BME280;4364;52.426;9.424;2023-02-14T06:33:31;103049.03;;;-0.57;100.00
8653;BME280;4364;52.426;9.424;2023-02-14T06:35:58;103048.56;;;-0.52;100.00
8653;BME280;4364;52.426;9.424;2023-02-14T06:38:24;103047.16;;;-0.46;100.00
8653;BME280;4364;52.426;9.424;2023-02-14T06:40:51;103056.41;;;-0.41;100.00
8653;BME280;4364;52.426;9.424;2023-02-14T06:43:17;103055.59;;;-0.51;100.00
8653;BME280;4364;52.426;9.424;2023-02-14T06:45:45;103051.41;;;-0.53;100.00
8653;BME280;4364;52.426;9.424;2023-02-14T06:48:12;103052.22;;;-0.43;100.00
8653;BME280;4364;52.426;9.424;2023-02-14T06:50:38;103057.28;;;-0.50;100.00
8653;BME280;4364;52.426;9.424;2023-02-14T06:53:05;103055.19;;;-0.56;100.00
8653;BME280;4364;52.426;9.424;2023-02-14T06:55:31;103053.22;;;-0.54;100.00
8653;BME280;4364;52.426;9.424;2023-02-14T06:57:58;103051.81;;;-0.48;100.00
8653;BME280;4364;52.426;9.424;2023-02-14T07:00:24;103055.56;;;-0.41;100.00
8653;BME280;4364;52.426;9.424;2023-02-14T07:02:51;103063.31;;;-0.38;100.00
8653;BME280;4364;52.426;9.424;2023-02-14T07:05:18;103061.09;;;-0.52;100.00
8653;BME280;4364;52.426;9.424;2023-02-14T07:07:45;103059.50;;;-0.45;100.00
8653;BME280;4364;52.426;9.424;2023-02-14T07:10:12;103063.09;;;-0.64;100.00
8653;BME280;4364;52.426;9.424;2023-02-14T07:12:39;103060.72;;;-0.67;100.00
8653;BME280;4364;52.426;9.424;2023-02-14T07:15:10;103054.25;;;-0.75;100.00
8653;BME280;4364;52.426;9.424;2023-02-14T07:17:37;103058.66;;;-0.83;100.00
8653;BME280;4364;52.426;9.424;2023-02-14T07:20:06;103056.25;;;-0.77;100.00
8653;BME280;4364;52.426;9.424;2023-02-14T07:22:33;103058.19;;;-0.79;100.00
8653;BME280;4364;52.426;9.424;2023-02-14T07:25:01;103051.44;;;-0.73;100.00
8653;BME280;4364;52.426;9.424;2023-02-14T07:27:27;103047.22;;;-0.76;100.00
8653;BME280;4364;52.426;9.424;2023-02-14T07:29:53;103064.06;;;-0.65;100.00
8653;BME280;4364;52.426;9.424;2023-02-14T07:32:20;103049.72;;;-0.54;100.00
8653;BME280;4364;52.426;9.424;2023-02-14T07:34:49;103058.38;;;-0.43;100.00
8653;BME280;4364;52.426;9.424;2023-02-14T07:37:15;103048.78;;;-0.35;100.00
8653;BME280;4364;52.426;9.424;2023-02-14T07:39:43;103045.69;;;-0.31;100.00
8653;BME280;4364;52.426;9.424;2023-02-14T07:42:10;103050.59;;;-0.26;100.00
8653;BME280;4364;52.426;9.424;2023-02-14T07:44:37;103052.25;;;-0.25;100.00
8653;BME280;4364;52.426;9.424;2023-02-14T07:47:09;103045.66;;;-0.21;100.00
8653;BME280;4364;52.426;9.424;2023-02-14T07:49:35;103044.31;;;-0.35;100.00
8653;BME280;4364;52.426;9.424;2023-02-14T07:52:03;103043.47;;;-0.45;100.00
8653;BME280;4364;52.426;9.424;2023-02-14T07:54:30;103038.59;;;-0.50;100.00
8653;BME280;4364;52.426;9.424;2023-02-14T07:56:56;103054.16;;;-0.45;100.00
8653;BME280;4364;52.426;9.424;2023-02-14T07:59:22;103047.41;;;-0.40;100.00
8653;BME280;4364;52.426;9.424;2023-02-14T08:01:51;103050.59;;;-0.26;100.00
8653;BME280;4364;52.426;9.424;2023-02-14T08:04:18;103049.41;;;-0.14;100.00
8653;BME280;4364;52.426;9.424;2023-02-14T08:06:45;103057.13;;;-0.11;100.00
8653;BME280;4364;52.426;9.424;2023-02-14T08:09:12;103055.88;;;-0.07;100.00
8653;BME280;4364;52.426;9.424;2023-02-14T08:11:54;103052.13;;;0.04;100.00
8653;BME280;4364;52.426;9.424;2023-02-14T08:14:40;103056.19;;;0.08;100.00
8653;BME280;4364;52.426;9.424;2023-02-14T08:17:07;103059.81;;;0.17;100.00
8653;BME280;4364;52.426;9.424;2023-02-14T08:19:36;103056.22;;;0.26;100.00
8653;BME280;4364;52.426;9.424;2023-02-14T08:22:03;103054.09;;;0.30;100.00
8653;BME280;4364;52.426;9.424;2023-02-14T08:24:30;103049.69;;;0.39;100.00
8653;BME280;4364;52.426;9.424;2023-02-14T08:26:56;103052.41;;;0.29;100.00
8653;BME280;4364;52.426;9.424;2023-02-14T08:29:23;103043.63;;;0.36;100.00
8653;BME280;4364;52.426;9.424;2023-02-14T08:31:50;103047.59;;;0.32;100.00
8653;BME280;4364;52.426;9.424;2023-02-14T08:34:18;103045.31;;;0.38;100.00
8653;BME280;4364;52.426;9.424;2023-02-14T08:36:45;103043.84;;;0.43;100.00
8653;BME280;4364;52.426;9.424;2023-02-14T08:39:12;103038.88;;;0.48;100.00
8653;BME280;4364;52.426;9.424;2023-02-14T08:41:39;103039.19;;;0.63;100.00
8653;BME280;4364;52.426;9.424;2023-02-14T08:44:06;103046.25;;;0.64;100.00
8653;BME280;4364;52.426;9.424;2023-02-14T08:46:32;103040.81;;;0.74;100.00
8653;BME280;4364;52.426;9.424;2023-02-14T08:48:59;103046.47;;;0.71;100.00
8653;BME280;4364;52.426;9.424;2023-02-14T08:51:28;103041.34;;;0.78;100.00
8653;BME280;4364;52.426;9.424;2023-02-14T08:53:55;103050.88;;;0.80;100.00
8653;BME280;4364;52.426;9.424;2023-02-14T08:56:21;103041.41;;;0.86;100.00
8653;BME280;4364;52.426;9.424;2023-02-14T08:58:52;103044.47;;;0.91;100.00
8653;BME280;4364;52.426;9.424;2023-02-14T09:01:19;103035.53;;;1.08;100.00
8653;BME280;4364;52.426;9.424;2023-02-14T09:03:46;103026.50;;;1.09;100.00
8653;BME280;4364;52.426;9.424;2023-02-14T09:06:14;103034.47;;;1.19;100.00
8653;BME280;4364;52.426;9.424;2023-02-14T09:08:43;103036.34;;;1.27;100.00
8653;BME280;4364;52.426;9.424;2023-02-14T09:11:16;103031.72;;;1.37;100.00
8653;BME280;4364;52.426;9.424;2023-02-14T09:13:45;103040.50;;;1.47;100.00
8653;BME280;4364;52.426;9.424;2023-02-14T09:16:14;103039.16;;;1.52;100.00
8653;BME280;4364;52.426;9.424;2023-02-14T09:18:44;103033.19;;;1.58;100.00
8653;BME280;4364;52.426;9.424;2023-02-14T09:21:13;103043.31;;;1.72;100.00
8653;BME280;4364;52.426;9.424;2023-02-14T09:23:40;103041.66;;;1.79;100.00
8653;BME280;4364;52.426;9.424;2023-02-14T09:26:09;103042.06;;;1.93;100.00
8653;BME280;4364;52.426;9.424;2023-02-14T09:28:36;103034.72;;;2.11;100.00
8653;BME280;4364;52.426;9.424;2023-02-14T09:31:16;103038.25;;;2.12;100.00
8653;BME280;4364;52.426;9.424;2023-02-14T09:33:44;103035.41;;;2.13;100.00
8653;BME280;4364;52.426;9.424;2023-02-14T09:36:29;103034.59;;;2.21;100.00
8653;BME280;4364;52.426;9.424;2023-02-14T09:38:56;103038.13;;;2.30;100.00
8653;BME280;4364;52.426;9.424;2023-02-14T09:41:43;103031.78;;;2.39;100.00
8653;BME280;4364;52.426;9.424;2023-02-14T09:44:30;103016.53;;;2.48;100.00
8653;BME280;4364;52.426;9.424;2023-02-14T09:47:35;103016.53;;;2.56;100.00
8653;BME280;4364;52.426;9.424;2023-02-14T09:52:52;103014.03;;;2.79;100.00
8653;BME280;4364;52.426;9.424;2023-02-14T09:55:22;103010.97;;;2.90;100.00
8653;BME280;4364;52.426;9.424;2023-02-14T09:58:03;103008.44;;;3.22;100.00
8653;BME280;4364;52.426;9.424;2023-02-14T10:00:35;103007.44;;;3.23;100.00
8653;BME280;4364;52.426;9.424;2023-02-14T10:03:30;103011.03;;;3.55;100.00
8653;BME280;4364;52.426;9.424;2023-02-14T10:08:37;103012.53;;;3.57;100.00
8653;BME280;4364;52.426;9.424;2023-02-14T10:11:10;103015.53;;;3.62;100.00
8653;BME280;4364;52.426;9.424;2023-02-14T10:13:47;103008.44;;;3.78;100.00
8653;BME280;4364;52.426;9.424;2023-02-14T10:16:21;103003.31;;;3.91;100.00
8653;BME280;4364;52.426;9.424;2023-02-14T10:19:13;103001.41;;;4.00;100.00
8653;BME280;4364;52.426;9.424;2023-02-14T10:24:32;102996.72;;;4.25;100.00
8653;BME280;4364;52.426;9.424;2023-02-14T10:27:08;102983.84;;;4.35;100.00
8653;BME280;4364;52.426;9.424;2023-02-14T10:29:38;102980.75;;;4.47;100.00
8653;BME280;4364;52.426;9.424;2023-02-14T10:32:12;102986.38;;;4.60;100.00
8653;BME280;4364;52.426;9.424;2023-02-14T10:34:46;102984.44;;;4.69;100.00
8653;BME280;4364;52.426;9.424;2023-02-14T10:37:48;102999.47;;;4.86;100.00
8653;BME280;4364;52.426;9.424;2023-02-14T10:40:40;102983.03;;;5.11;100.00
8653;BME280;4364;52.426;9.424;2023-02-14T10:46:02;102979.25;;;5.35;100.00
8653;BME280;4364;52.426;9.424;2023-02-14T10:48:53;102975.59;;;5.43;99.91
8653;BME280;4364;52.426;9.424;2023-02-14T10:51:32;102968.53;;;5.56;99.96
8653;BME280;4364;52.426;9.424;2023-02-14T10:54:20;102982.44;;;6.05;94.93
8653;BME280;4364;52.426;9.424;2023-02-14T10:57:06;102981.47;;;6.12;94.37
8653;BME280;4364;52.426;9.424;2023-02-14T10:59:56;102984.63;;;6.16;94.62
8653;BME280;4364;52.426;9.424;2023-02-14T11:02:44;102965.53;;;6.18;94.34
8653;BME280;4364;52.426;9.424;2023-02-14T11:05:33;102962.13;;;6.52;92.59
8653;BME280;4364;52.426;9.424;2023-02-14T11:08:09;102952.72;;;6.48;92.20
8653;BME280;4364;52.426;9.424;2023-02-14T11:10:37;102950.47;;;6.52;92.32
8653;BME280;4364;52.426;9.424;2023-02-14T11:13:25;102946.16;;;6.57;92.05
8653;BME280;4364;52.426;9.424;2023-02-14T11:15:52;102943.94;;;6.67;91.86
8653;BME280;4364;52.426;9.424;2023-02-14T11:18:23;102940.81;;;6.92;89.49
8653;BME280;4364;52.426;9.424;2023-02-14T11:23:43;102937.03;;;6.93;89.52
8653;BME280;4364;52.426;9.424;2023-02-14T11:26:26;102941.28;;;7.02;89.24
8653;BME280;4364;52.426;9.424;2023-02-14T11:28:57;102934.31;;;7.21;87.91
8653;BME280;4364;52.426;9.424;2023-02-14T11:31:29;102938.19;;;7.40;86.43
8653;BME280;4364;52.426;9.424;2023-02-14T11:33:58;102934.97;;;7.65;84.74
8653;BME280;4364;52.426;9.424;2023-02-14T11:36:29;102931.00;;;7.68;85.02
8653;BME280;4364;52.426;9.424;2023-02-14T11:39:17;102937.72;;;7.85;84.28
8653;BME280;4364;52.426;9.424;2023-02-14T11:41:53;102929.19;;;7.88;83.75
8653;BME280;4364;52.426;9.424;2023-02-14T11:44:23;102923.19;;;8.06;82.27
8653;BME280;4364;52.426;9.424;2023-02-14T11:46:51;102923.16;;;8.00;82.28
8653;BME280;4364;52.426;9.424;2023-02-14T11:49:31;102920.25;;;8.01;82.60
8653;BME280;4364;52.426;9.424;2023-02-14T11:52:09;102915.66;;;8.08;83.07
8653;BME280;4364;52.426;9.424;2023-02-14T11:54:39;102908.81;;;8.19;82.99
8653;BME280;4364;52.426;9.424;2023-02-14T11:57:17;102902.78;;;8.24;82.56
8653;BME280;4364;52.426;9.424;2023-02-14T11:59:47;102897.81;;;8.61;81.09
8653;BME280;4364;52.426;9.424;2023-02-14T12:02:23;102891.50;;;8.74;80.30
8653;BME280;4364;52.426;9.424;2023-02-14T12:04:54;102890.47;;;8.88;79.67
8653;BME280;4364;52.426;9.424;2023-02-14T12:07:26;102883.16;;;8.82;79.40
8653;BME280;4364;52.426;9.424;2023-02-14T12:10:16;102884.44;;;8.79;80.31
8653;BME280;4364;52.426;9.424;2023-02-14T12:12:53;102876.28;;;8.86;80.87
8653;BME280;4364;52.426;9.424;2023-02-14T12:15:24;102870.81;;;9.06;79.52
8653;BME280;4364;52.426;9.424;2023-02-14T12:18:49;102865.31;;;9.19;78.94
8653;BME280;4364;52.426;9.424;2023-02-14T12:23:46;102865.56;;;9.56;75.82
8653;BME280;4364;52.426;9.424;2023-02-14T12:26:25;102860.13;;;9.56;76.03
8653;BME280;4364;52.426;9.424;2023-02-14T12:29:17;102854.84;;;10.00;74.81
8653;BME280;4364;52.426;9.424;2023-02-14T12:31:47;102860.44;;;10.05;74.11
8653;BME280;4364;52.426;9.424;2023-02-14T12:34:15;102852.19;;;10.18;73.65
8653;BME280;4364;52.426;9.424;2023-02-14T12:37:00;102845.06;;;10.24;73.33
8653;BME280;4364;52.426;9.424;2023-02-14T12:39:39;102848.81;;;10.23;73.36
8653;BME280;4364;52.426;9.424;2023-02-14T12:42:29;102850.88;;;10.28;73.48
8653;BME280;4364;52.426;9.424;2023-02-14T12:45:23;102843.16;;;10.25;73.74
8653;BME280;4364;52.426;9.424;2023-02-14T12:53:31;102833.09;;;10.50;72.28
8653;BME280;4364;52.426;9.424;2023-02-14T12:56:08;102827.88;;;10.49;72.62
8653;BME280;4364;52.426;9.424;2023-02-14T12:59:02;102821.78;;;10.53;72.48
8653;BME280;4364;52.426;9.424;2023-02-14T13:02:03;102817.31;;;10.59;72.28
8653;BME280;4364;52.426;9.424;2023-02-14T13:10:12;102811.28;;;10.75;72.08
8653;BME280;4364;52.426;9.424;2023-02-14T13:13:00;102811.13;;;10.89;72.17
8653;BME280;4364;52.426;9.424;2023-02-14T13:15:34;102808.41;;;10.89;71.84
8653;BME280;4364;52.426;9.424;2023-02-14T13:18:20;102796.63;;;10.95;71.86
8653;BME280;4364;52.426;9.424;2023-02-14T13:20:53;102795.72;;;11.01;71.55
8653;BME280;4364;52.426;9.424;2023-02-14T13:25:59;102796.91;;;11.05;70.69
8653;BME280;4364;52.426;9.424;2023-02-14T13:28:29;102789.06;;;10.97;71.07
8653;BME280;4364;52.426;9.424;2023-02-14T13:30:58;102788.00;;;10.98;71.46
8653;BME280;4364;52.426;9.424;2023-02-14T13:33:34;102773.31;;;10.99;71.17
8653;BME280;4364;52.426;9.424;2023-02-14T13:36:06;102776.66;;;11.01;71.37
8653;BME280;4364;52.426;9.424;2023-02-14T13:38:42;102775.50;;;11.09;71.41
8653;BME280;4364;52.426;9.424;2023-02-14T13:41:09;102772.09;;;11.13;71.35
8653;BME280;4364;52.426;9.424;2023-02-14T13:43:59;102771.34;;;11.37;69.82
8653;BME280;4364;52.426;9.424;2023-02-14T13:51:58;102761.63;;;11.71;66.36
8653;BME280;4364;52.426;9.424;2023-02-14T13:54:41;102761.22;;;11.56;67.03
8653;BME280;4364;52.426;9.424;2023-02-14T13:57:29;102750.88;;;11.46;65.09
8653;BME280;4364;52.426;9.424;2023-02-14T14:02:44;102756.44;;;11.39;63.67
8653;BME280;4364;52.426;9.424;2023-02-14T14:10:54;102744.22;;;11.30;64.92
8653;BME280;4364;52.426;9.424;2023-02-14T14:18:57;102748.31;;;11.21;63.54
8653;BME280;4364;52.426;9.424;2023-02-14T14:24:25;102741.31;;;11.13;63.23
8653;BME280;4364;52.426;9.424;2023-02-14T14:35:01;102743.94;;;11.20;61.57
8653;BME280;4364;52.426;9.424;2023-02-14T14:37:33;102737.84;;;11.36;63.25
8653;BME280;4364;52.426;9.424;2023-02-14T14:40:04;102740.25;;;11.44;65.37
8653;BME280;4364;52.426;9.424;2023-02-14T14:42:35;102728.09;;;11.28;66.71
8653;BME280;4364;52.426;9.424;2023-02-14T14:45:08;102726.72;;;11.07;68.50
8653;BME280;4364;52.426;9.424;2023-02-14T14:47:45;102727.00;;;11.18;69.05
8653;BME280;4364;52.426;9.424;2023-02-14T14:50:16;102716.53;;;11.45;67.35
8653;BME280;4364;52.426;9.424;2023-02-14T14:52:47;102716.66;;;11.38;68.08
8653;BME280;4364;52.426;9.424;2023-02-14T14:55:19;102720.06;;;11.34;68.58
8653;BME280;4364;52.426;9.424;2023-02-14T14:57:51;102713.56;;;11.35;68.22
8653;BME280;4364;52.426;9.424;2023-02-14T15:00:30;102720.50;;;11.19;68.27
8653;BME280;4364;52.426;9.424;2023-02-14T15:08:31;102708.16;;;10.86;70.42
8653;BME280;4364;52.426;9.424;2023-02-14T15:11:06;102713.25;;;11.12;69.88
8653;BME280;4364;52.426;9.424;2023-02-14T15:13:41;102706.94;;;11.00;69.67